createdAt,value
2023-09-05T00:01:52.867Z,5.80
2023-09-05T00:04:20.356Z,2.50
2023-09-05T00:06:48.699Z,3.03
2023-09-05T00:09:16.180Z,3.65
2023-09-05T00:11:44.784Z,3.33
2023-09-05T00:14:12.122Z,1.95
2023-09-05T00:16:39.568Z,1.83
2023-09-05T00:19:06.997Z,2.67
2023-09-05T00:21:34.273Z,2.53
2023-09-05T00:24:24.127Z,2.72
2023-09-05T00:26:52.730Z,2.72
2023-09-05T00:29:20.704Z,2.80
2023-09-05T00:31:48.871Z,2.40
2023-09-05T00:34:16.216Z,3.92
2023-09-05T00:36:43.661Z,3.72
2023-09-05T00:39:11.106Z,5.22
2023-09-05T00:41:39.143Z,3.08
2023-09-05T00:44:08.105Z,2.40
2023-09-05T00:46:35.399Z,2.60
2023-09-05T00:49:03.797Z,3.50
2023-09-05T00:51:31.488Z,3.17
2023-09-05T00:53:58.846Z,2.67
2023-09-05T00:56:26.229Z,2.40
2023-09-05T00:58:53.566Z,4.53
2023-09-05T01:01:22.211Z,2.38
2023-09-05T01:03:49.510Z,3.42
2023-09-05T01:06:23.614Z,3.08
2023-09-05T01:08:54.574Z,2.58
2023-09-05T01:11:22.119Z,3.78
2023-09-05T01:13:49.405Z,3.90
2023-09-05T01:16:16.738Z,2.35
2023-09-05T01:18:46.091Z,3.78
2023-09-05T01:21:16.027Z,2.33
2023-09-05T01:26:11.829Z,2.35
2023-09-05T01:28:42.568Z,2.42
2023-09-05T01:31:10.342Z,3.08
2023-09-05T01:33:38.670Z,2.47
2023-09-05T01:36:06.309Z,3.03
2023-09-05T01:38:33.633Z,2.13
2023-09-05T01:41:00.988Z,2.30
2023-09-05T01:43:29.579Z,3.80
2023-09-05T01:45:56.867Z,3.00
2023-09-05T01:48:24.152Z,3.08
2023-09-05T01:50:51.423Z,4.55
2023-09-05T01:53:18.694Z,2.30
2023-09-05T01:55:45.964Z,2.10
2023-09-05T01:58:13.237Z,2.17
2023-09-05T02:00:41.896Z,2.35
2023-09-05T02:03:09.297Z,2.58
2023-09-05T02:05:36.650Z,2.63
2023-09-05T02:08:04.047Z,2.55
2023-09-05T02:10:32.203Z,2.40
2023-09-05T02:12:59.460Z,3.25
2023-09-05T02:15:26.727Z,3.15
2023-09-05T02:17:56.822Z,2.38
2023-09-05T02:20:24.567Z,3.15
2023-09-05T02:22:51.868Z,4.82
2023-09-05T02:25:19.146Z,2.35
2023-09-05T02:27:46.425Z,3.90
2023-09-05T02:30:13.753Z,2.40
2023-09-05T02:32:41.118Z,2.40
2023-09-05T02:35:12.658Z,1.90
2023-09-05T02:37:40.947Z,2.28
2023-09-05T02:40:08.832Z,3.40
2023-09-05T02:42:36.112Z,2.35
2023-09-05T02:45:03.575Z,2.60
2023-09-05T02:47:30.901Z,3.97
2023-09-05T02:49:58.262Z,2.25
2023-09-05T02:52:37.816Z,2.25
2023-09-05T02:55:13.035Z,2.50
2023-09-05T02:57:40.311Z,1.98
2023-09-05T03:00:08.450Z,2.47
2023-09-05T03:02:36.889Z,3.20
2023-09-05T03:05:06.867Z,2.60
2023-09-05T03:07:35.511Z,2.60
2023-09-05T03:10:03.773Z,2.30
2023-09-05T03:12:31.074Z,2.33
2023-09-05T03:14:58.395Z,3.22
2023-09-05T03:17:25.673Z,2.22
2023-09-05T03:19:52.984Z,2.33
2023-09-05T03:22:20.239Z,2.40
2023-09-05T03:24:48.840Z,2.17
2023-09-05T03:27:16.210Z,3.22
2023-09-05T03:29:43.517Z,3.05
2023-09-05T03:32:10.780Z,3.17
2023-09-05T03:34:38.063Z,2.40
2023-09-05T03:37:05.352Z,1.88
2023-09-05T03:39:32.625Z,2.30
2023-09-05T03:42:01.188Z,4.05
2023-09-05T03:44:28.496Z,2.28
2023-09-05T03:46:55.787Z,2.80
2023-09-05T03:49:23.120Z,2.13
2023-09-05T03:51:50.470Z,3.50
2023-09-05T03:54:17.759Z,3.10
2023-09-05T03:56:45.025Z,2.28
2023-09-05T03:59:13.623Z,2.42
2023-09-05T04:01:40.941Z,3.42
2023-09-05T04:04:09.190Z,3.30
2023-09-05T04:06:36.487Z,2.70
2023-09-05T04:09:03.754Z,3.45
2023-09-05T04:11:31.022Z,3.85
2023-09-05T04:13:58.270Z,2.70
2023-09-05T04:16:26.859Z,3.38
2023-09-05T04:18:54.118Z,3.08
2023-09-05T04:21:21.497Z,2.95
2023-09-05T04:23:48.767Z,2.22
2023-09-05T04:26:16.244Z,2.53
2023-09-05T04:28:43.516Z,2.70
2023-09-05T04:31:10.834Z,3.10
2023-09-05T04:33:40.733Z,3.08
2023-09-05T04:36:08.541Z,2.47
2023-09-05T04:38:35.906Z,3.50
2023-09-05T04:41:03.219Z,2.88
2023-09-05T04:43:30.911Z,2.97
2023-09-05T04:45:58.245Z,2.80
2023-09-05T04:48:25.847Z,2.53
2023-09-05T04:50:54.961Z,2.80
2023-09-05T04:53:22.236Z,2.53
2023-09-05T04:55:52.874Z,4.05
2023-09-05T04:58:20.164Z,3.67
2023-09-05T05:00:48.794Z,3.65
2023-09-05T05:03:16.229Z,2.97
2023-09-05T05:05:43.566Z,2.90
2023-09-05T05:08:12.145Z,2.65
2023-09-05T05:10:39.861Z,2.40
2023-09-05T05:13:07.173Z,3.75
2023-09-05T05:15:34.460Z,2.95
2023-09-05T05:18:01.774Z,2.88
2023-09-05T05:20:29.739Z,2.58
2023-09-05T05:22:57.007Z,5.47
2023-09-05T05:25:25.608Z,2.55
2023-09-05T05:27:52.874Z,5.45
2023-09-05T05:30:20.279Z,2.85
2023-09-05T05:32:48.322Z,5.10
2023-09-05T05:35:15.633Z,5.13
2023-09-05T05:37:42.891Z,6.25
2023-09-05T05:40:11.614Z,8.23
2023-09-05T05:42:40.220Z,5.47
2023-09-05T05:45:08.061Z,11.00
2023-09-05T05:47:35.315Z,9.27
2023-09-05T05:50:02.586Z,7.97
2023-09-05T05:52:29.855Z,10.93
2023-09-05T05:54:57.142Z,6.25
2023-09-05T05:57:24.428Z,9.80
2023-09-05T05:59:53.022Z,13.32
2023-09-05T06:02:20.286Z,9.60
2023-09-05T06:04:47.553Z,5.90
2023-09-05T06:07:14.829Z,6.38
2023-09-05T06:09:42.099Z,6.47
2023-09-05T06:12:09.723Z,5.65
2023-09-05T06:14:36.992Z,4.43
2023-09-05T06:17:05.858Z,9.35
2023-09-05T06:19:33.120Z,16.67
2023-09-05T06:22:00.685Z,35.67
2023-09-05T06:24:27.973Z,20.38
2023-09-05T06:26:55.766Z,17.25
2023-09-05T06:29:23.852Z,18.33
2023-09-05T06:31:51.244Z,11.60
2023-09-05T06:34:19.860Z,8.32
2023-09-05T06:36:47.139Z,11.18
2023-09-05T06:39:14.392Z,6.30
2023-09-05T06:41:42.641Z,6.93
2023-09-05T06:44:09.934Z,10.55
2023-09-05T06:46:37.449Z,6.78
2023-09-05T06:49:04.811Z,7.65
2023-09-05T06:51:33.428Z,5.72
2023-09-05T06:54:00.819Z,4.20
2023-09-05T06:56:28.113Z,7.10
2023-09-05T06:58:55.394Z,4.35
2023-09-05T07:01:22.678Z,4.18
2023-09-05T07:03:50.387Z,11.90
2023-09-05T07:06:19.782Z,6.40
2023-09-05T07:08:50.500Z,4.55
2023-09-05T07:11:18.177Z,5.70
2023-09-05T07:13:45.909Z,9.45
2023-09-05T07:16:13.226Z,7.32
2023-09-05T07:18:40.566Z,4.65
2023-09-05T07:21:07.884Z,6.68
2023-09-05T07:23:35.184Z,6.05
2023-09-05T07:26:06.294Z,8.00
2023-09-05T07:28:33.893Z,5.57
2023-09-05T07:31:01.437Z,5.75
2023-09-05T07:33:28.705Z,6.75
2023-09-05T07:35:55.992Z,8.30
2023-09-05T07:38:23.434Z,9.10
2023-09-05T07:40:50.839Z,15.98
2023-09-05T07:43:19.417Z,26.33
2023-09-05T07:45:46.697Z,43.33
2023-09-05T07:48:14.011Z,47.22
2023-09-05T07:50:41.290Z,54.53
2023-09-05T07:53:08.606Z,34.33
2023-09-05T07:55:35.901Z,33.60
2023-09-05T07:58:03.361Z,24.30
2023-09-05T08:00:31.987Z,24.88
2023-09-05T08:03:01.097Z,21.35
2023-09-05T08:05:28.619Z,17.13
2023-09-05T08:07:55.893Z,14.60
2023-09-05T08:10:23.387Z,14.95
2023-09-05T08:12:50.685Z,16.23
2023-09-05T08:15:18.640Z,29.70
2023-09-05T08:17:47.399Z,28.60
2023-09-05T08:20:14.693Z,44.10
2023-09-05T08:22:42.107Z,28.83
2023-09-05T08:25:10.896Z,26.13
2023-09-05T08:27:38.185Z,20.00
2023-09-05T08:30:06.145Z,20.30
2023-09-05T08:32:33.586Z,14.27
2023-09-05T08:35:02.247Z,11.32
2023-09-05T08:37:29.638Z,12.68
2023-09-05T08:39:56.891Z,8.82
2023-09-05T08:42:24.215Z,12.35
2023-09-05T08:44:51.494Z,9.75
2023-09-05T08:47:18.766Z,10.63
2023-09-05T08:49:46.829Z,8.32
2023-09-05T08:52:16.754Z,8.45
2023-09-05T08:54:45.543Z,7.53
2023-09-05T08:57:12.948Z,7.80
2023-09-05T08:59:41.954Z,12.15
2023-09-05T09:02:09.292Z,11.38
2023-09-05T09:04:49.804Z,10.80
2023-09-05T09:07:19.916Z,7.47
2023-09-05T09:09:47.317Z,7.90
2023-09-05T09:12:15.165Z,12.07
2023-09-05T09:14:44.408Z,33.95
2023-09-05T09:17:11.711Z,43.20
2023-09-05T09:19:39.481Z,52.28
2023-09-05T09:22:09.123Z,56.72
2023-09-05T09:24:40.303Z,45.95
2023-09-05T09:27:07.766Z,43.50
2023-09-05T09:29:35.211Z,26.05
2023-09-05T09:32:05.840Z,29.73
2023-09-05T09:34:33.831Z,27.20
2023-09-05T09:37:01.156Z,25.58
2023-09-05T09:39:29.302Z,22.17
2023-09-05T09:41:59.849Z,21.95
2023-09-05T09:44:28.180Z,23.00
2023-09-05T09:46:55.961Z,14.55
2023-09-05T09:49:23.834Z,15.52
2023-09-05T09:51:52.419Z,15.95
2023-09-05T09:54:20.048Z,16.33
2023-09-05T09:56:47.399Z,17.27
2023-09-05T09:59:15.976Z,18.42
2023-09-05T10:01:43.674Z,15.13
2023-09-05T10:04:11.125Z,13.95
2023-09-05T10:06:38.432Z,15.75
2023-09-05T10:09:06.103Z,19.52
2023-09-05T10:11:34.230Z,20.02
2023-09-05T10:14:01.665Z,16.77
2023-09-05T10:16:30.304Z,19.95
2023-09-05T10:18:57.620Z,15.02
2023-09-05T10:21:26.485Z,17.15
2023-09-05T10:23:54.400Z,16.33
2023-09-05T10:26:21.706Z,15.93
2023-09-05T10:28:49.015Z,17.77
2023-09-05T10:31:17.014Z,15.00
2023-09-05T10:33:47.034Z,15.98
2023-09-05T10:36:38.506Z,10.70
2023-09-05T10:39:15.182Z,11.93
2023-09-05T10:41:42.460Z,11.70
2023-09-05T10:44:09.740Z,10.40
2023-09-05T10:46:37.057Z,9.65
2023-09-05T10:49:14.032Z,9.98
2023-09-05T10:51:56.241Z,9.48
2023-09-05T10:54:29.758Z,8.32
2023-09-05T10:56:57.171Z,7.68
2023-09-05T10:59:27.920Z,6.45
2023-09-05T11:01:58.167Z,8.20
2023-09-05T11:04:33.067Z,6.63
2023-09-05T11:07:01.202Z,8.35
2023-09-05T11:09:28.487Z,8.35
2023-09-05T11:11:56.185Z,6.32
2023-09-05T11:14:33.264Z,5.78
2023-09-05T11:17:00.707Z,5.00
2023-09-05T11:19:32.870Z,7.30
2023-09-05T11:22:08.863Z,5.30
2023-09-05T11:24:36.525Z,5.85
2023-09-05T11:27:04.996Z,8.77
2023-09-05T11:29:32.264Z,5.25
2023-09-05T11:32:00.297Z,6.03
2023-09-05T11:34:28.568Z,4.15
2023-09-05T11:36:57.144Z,4.72
2023-09-05T11:39:28.272Z,5.72
2023-09-05T11:41:59.244Z,5.68
2023-09-05T11:44:33.294Z,6.75
2023-09-05T11:47:12.425Z,4.55
2023-09-05T11:49:39.716Z,6.43
2023-09-05T11:52:08.372Z,3.78
2023-09-05T11:54:35.684Z,5.15
2023-09-05T11:57:03.461Z,4.22
2023-09-05T11:59:30.837Z,4.25
2023-09-05T12:01:58.161Z,3.67
2023-09-05T12:04:25.531Z,3.20
2023-09-05T12:06:53.107Z,3.20
2023-09-05T12:09:22.816Z,4.53
2023-09-05T12:11:51.451Z,3.47
2023-09-05T12:14:21.160Z,5.13
2023-09-05T12:16:48.944Z,4.72
2023-09-05T12:19:19.149Z,4.50
2023-09-05T12:21:46.912Z,3.00
2023-09-05T12:24:19.320Z,3.45
2023-09-05T12:26:47.933Z,4.85
2023-09-05T12:29:17.048Z,3.55
2023-09-05T12:31:46.062Z,4.07
2023-09-05T12:34:14.384Z,3.70
2023-09-05T12:36:41.761Z,2.83
2023-09-05T12:39:09.137Z,1.88
2023-09-05T12:41:36.463Z,2.85
2023-09-05T12:44:05.278Z,3.80
2023-09-05T12:46:33.376Z,3.47
2023-09-05T12:49:00.756Z,4.80
2023-09-05T12:51:29.411Z,2.70
2023-09-05T12:53:56.685Z,2.80
2023-09-05T12:56:24.242Z,2.15
2023-09-05T12:58:52.257Z,2.17
2023-09-05T13:01:23.502Z,2.58
2023-09-05T13:03:51.130Z,2.53
2023-09-05T13:06:20.799Z,2.47
2023-09-05T13:08:49.076Z,1.98
2023-09-05T13:11:17.286Z,2.10
2023-09-05T13:13:45.265Z,3.72
2023-09-05T13:16:12.588Z,2.72
2023-09-05T13:18:41.197Z,2.45
2023-09-05T13:21:10.145Z,3.33
2023-09-05T13:23:38.103Z,1.77
2023-09-05T13:26:07.224Z,3.25
2023-09-05T13:28:36.529Z,2.42
2023-09-05T13:31:03.827Z,2.05
2023-09-05T13:33:31.236Z,2.40
2023-09-05T13:35:59.958Z,2.45
2023-09-05T13:38:27.363Z,2.22
2023-09-05T13:40:55.063Z,2.05
2023-09-05T13:43:22.332Z,2.00
2023-09-05T13:45:49.682Z,3.92
2023-09-05T13:48:17.054Z,2.58
2023-09-05T13:50:44.447Z,1.75
2023-09-05T13:53:13.748Z,2.38
2023-09-05T13:55:41.028Z,1.83
2023-09-05T13:58:10.138Z,2.40
2023-09-05T14:00:37.541Z,1.80
2023-09-05T14:03:05.133Z,1.90
2023-09-05T14:05:32.681Z,1.65
2023-09-05T14:07:59.995Z,2.28
2023-09-05T14:10:28.609Z,3.20
2023-09-05T14:12:55.885Z,1.90
2023-09-05T14:15:23.277Z,1.92
2023-09-05T14:17:50.641Z,2.65
2023-09-05T14:20:17.974Z,1.75
2023-09-05T14:22:45.274Z,2.00
2023-09-05T14:25:12.554Z,3.13
2023-09-05T14:27:41.204Z,2.03
2023-09-05T14:30:09.212Z,2.20
2023-09-05T14:32:36.539Z,2.20
2023-09-05T14:35:03.832Z,2.45
2023-09-05T14:37:31.138Z,4.15
2023-09-05T14:39:58.412Z,4.05
2023-09-05T14:42:26.789Z,1.60
2023-09-05T14:44:55.494Z,2.55
2023-09-05T14:47:22.802Z,1.70
2023-09-05T14:49:50.085Z,2.42
2023-09-05T14:52:19.238Z,1.77
2023-09-05T14:54:46.557Z,1.50
2023-09-05T14:57:13.877Z,2.63
2023-09-05T14:59:41.202Z,1.63
2023-09-05T15:02:12.064Z,2.28
2023-09-05T15:04:40.993Z,1.70
2023-09-05T15:07:09.170Z,1.52
2023-09-05T15:09:37.518Z,1.60
2023-09-05T15:12:07.225Z,1.63
2023-09-05T15:14:36.641Z,1.58
2023-09-05T15:17:04.002Z,1.50
2023-09-05T15:19:32.809Z,2.85
2023-09-05T15:22:00.265Z,1.70
2023-09-05T15:24:27.638Z,1.50
2023-09-05T15:26:55.360Z,1.50
2023-09-05T15:29:22.634Z,1.58
2023-09-05T15:31:49.985Z,1.90
2023-09-05T15:34:17.481Z,1.92
2023-09-05T15:36:46.419Z,1.48
2023-09-05T15:39:13.823Z,2.00
2023-09-05T15:41:41.140Z,1.30
2023-09-05T15:44:10.426Z,1.95
2023-09-05T15:46:37.894Z,1.75
2023-09-05T15:49:05.407Z,1.35
2023-09-05T15:51:33.171Z,1.55
2023-09-05T15:54:01.870Z,1.70
2023-09-05T15:56:30.300Z,1.48
2023-09-05T15:58:57.731Z,1.73
2023-09-05T16:01:25.074Z,1.58
2023-09-05T16:03:52.541Z,1.63
2023-09-05T16:06:19.959Z,1.40
2023-09-05T16:08:47.529Z,1.30
2023-09-05T16:11:17.586Z,1.65
2023-09-05T16:13:45.115Z,1.30
2023-09-05T16:16:13.325Z,1.60
2023-09-05T16:18:40.833Z,1.67
2023-09-05T16:21:08.278Z,1.40
2023-09-05T16:23:35.692Z,1.50
2023-09-05T16:26:02.967Z,1.40
2023-09-05T16:28:31.616Z,1.40
2023-09-05T16:30:59.318Z,1.45
2023-09-05T16:33:26.835Z,1.60
2023-09-05T16:36:00.384Z,1.50
2023-09-05T16:38:27.891Z,1.40
2023-09-05T16:40:55.396Z,2.55
2023-09-05T16:43:22.877Z,1.38
2023-09-05T16:45:51.528Z,1.40
2023-09-05T16:48:18.983Z,1.60
2023-09-05T16:50:46.376Z,1.38
2023-09-05T16:53:14.032Z,1.63
2023-09-05T16:55:41.311Z,1.40
2023-09-05T16:58:08.862Z,1.20
2023-09-05T17:00:37.425Z,1.77
2023-09-05T17:03:07.007Z,1.38
2023-09-05T17:05:34.352Z,1.40
2023-09-05T17:08:01.618Z,1.52
2023-09-05T17:10:28.889Z,1.60
2023-09-05T17:12:56.171Z,1.58
2023-09-05T17:15:23.495Z,1.30
2023-09-05T17:17:50.900Z,1.23
2023-09-05T17:20:20.457Z,1.95
2023-09-05T17:22:47.737Z,1.95
2023-09-05T17:25:15.229Z,1.30
2023-09-05T17:27:45.578Z,1.45
2023-09-05T17:30:13.658Z,1.50
2023-09-05T17:32:41.163Z,1.42
2023-09-05T17:35:08.887Z,1.75
2023-09-05T17:37:40.917Z,3.85
2023-09-05T17:40:08.774Z,2.25
2023-09-05T17:42:36.106Z,1.42
2023-09-05T17:45:03.527Z,1.40
2023-09-05T17:47:32.202Z,1.58
2023-09-05T17:49:59.464Z,1.23
2023-09-05T17:52:26.743Z,1.38
2023-09-05T17:54:55.373Z,2.25
2023-09-05T17:57:22.766Z,1.75
2023-09-05T17:59:50.167Z,1.90
2023-09-05T18:02:17.468Z,1.98
2023-09-05T18:04:45.769Z,3.78
2023-09-05T18:07:13.071Z,1.30
2023-09-05T18:09:40.417Z,1.30
2023-09-05T18:12:09.302Z,1.33
2023-09-05T18:14:36.740Z,1.80
2023-09-05T18:17:04.087Z,1.58
2023-09-05T18:19:32.550Z,1.60
2023-09-05T18:22:00.145Z,1.40
2023-09-05T18:24:27.572Z,1.45
2023-09-05T18:26:54.913Z,2.38
2023-09-05T18:29:23.616Z,2.60
2023-09-05T18:31:50.964Z,1.63
2023-09-05T18:34:37.600Z,2.60
2023-09-05T18:37:05.540Z,2.25
2023-09-05T18:39:33.017Z,2.35
2023-09-05T18:42:00.824Z,1.33
2023-09-05T18:44:29.459Z,1.52
2023-09-05T18:46:56.762Z,1.50
2023-09-05T18:49:24.110Z,2.05
2023-09-05T18:51:53.072Z,1.60
2023-09-05T18:54:20.419Z,3.90
2023-09-05T18:56:47.710Z,1.63
2023-09-05T18:59:14.973Z,2.10
2023-09-05T19:01:44.440Z,2.70
2023-09-05T19:04:12.005Z,2.25
2023-09-05T19:06:39.695Z,2.55
2023-09-05T19:09:07.021Z,2.25
2023-09-05T19:11:34.329Z,1.30
2023-09-05T19:14:01.626Z,4.07
2023-09-05T19:16:29.014Z,3.03
2023-09-05T19:18:57.785Z,1.63
2023-09-05T19:21:25.240Z,1.42
2023-09-05T19:23:52.560Z,1.52
2023-09-05T19:26:19.833Z,3.00
2023-09-05T19:28:47.098Z,1.55
2023-09-05T19:31:15.521Z,2.65
2023-09-05T19:33:42.901Z,1.58
2023-09-05T19:36:11.534Z,2.15
2023-09-05T19:38:38.845Z,1.83
2023-09-05T19:41:09.260Z,4.05
2023-09-05T19:43:37.802Z,1.65
2023-09-05T19:46:05.112Z,2.83
2023-09-05T19:48:32.688Z,1.67
2023-09-05T19:51:00.165Z,1.88
2023-09-05T19:53:28.768Z,1.65
2023-09-05T19:55:56.224Z,3.10
2023-09-05T19:58:23.537Z,1.55
2023-09-05T20:00:50.950Z,2.45
2023-09-05T20:03:18.939Z,3.45
2023-09-05T20:05:46.373Z,1.60
2023-09-05T20:08:13.742Z,2.17
2023-09-05T20:10:42.321Z,2.33
2023-09-05T20:13:09.617Z,2.33
2023-09-05T20:15:36.940Z,3.40
2023-09-05T20:18:04.519Z,1.55
2023-09-05T20:20:31.915Z,1.60
2023-09-05T20:22:59.188Z,1.65
2023-09-05T20:25:26.489Z,3.05
2023-09-05T20:27:55.162Z,3.35
2023-09-05T20:30:22.517Z,2.30
2023-09-05T20:32:49.836Z,1.73
2023-09-05T20:35:17.258Z,2.83
2023-09-05T20:37:44.903Z,1.45
2023-09-05T20:40:12.819Z,3.20
2023-09-05T20:42:40.120Z,1.60
2023-09-05T20:45:11.489Z,1.98
2023-09-05T20:47:38.858Z,2.85
2023-09-05T20:50:06.842Z,2.40
2023-09-05T20:52:34.316Z,3.33
2023-09-05T20:55:01.649Z,1.50
2023-09-05T20:57:28.969Z,1.70
2023-09-05T20:59:56.429Z,3.05
2023-09-05T21:02:26.307Z,1.88
2023-09-05T21:07:20.858Z,1.83
2023-09-05T21:09:48.519Z,1.85
2023-09-05T21:12:15.877Z,2.90
2023-09-05T21:14:43.922Z,1.80
2023-09-05T21:17:11.221Z,2.10
2023-09-05T21:19:39.833Z,1.98
2023-09-05T21:22:08.265Z,1.42
2023-09-05T21:24:35.607Z,2.38
2023-09-05T21:27:04.212Z,1.48
2023-09-05T21:29:31.493Z,1.70
2023-09-05T21:31:58.880Z,2.92
2023-09-05T21:34:26.191Z,1.92
2023-09-05T21:36:54.847Z,1.67
2023-09-05T21:39:22.234Z,2.75
2023-09-05T21:41:49.584Z,1.63
2023-09-05T21:44:16.843Z,3.80
2023-09-05T21:46:44.169Z,2.13
2023-09-05T21:49:11.496Z,2.33
2023-09-05T21:51:38.883Z,3.13
2023-09-05T21:54:07.593Z,3.50
2023-09-05T21:56:34.904Z,3.53
2023-09-05T21:59:02.209Z,3.72
2023-09-05T22:01:30.324Z,2.75
2023-09-05T22:04:00.364Z,1.92
2023-09-05T22:06:27.945Z,1.98
2023-09-05T22:08:55.346Z,3.22
2023-09-05T22:11:24.600Z,2.25
2023-09-05T22:13:51.936Z,2.60
2023-09-05T22:16:19.317Z,2.20
2023-09-05T22:18:47.028Z,1.50
2023-09-05T22:21:14.748Z,3.42
2023-09-05T22:23:42.094Z,1.58
2023-09-05T22:26:09.859Z,1.35
2023-09-05T22:28:38.564Z,2.35
2023-09-05T22:31:06.046Z,2.10
2023-09-05T22:33:33.538Z,2.00
2023-09-05T22:36:00.866Z,1.75
2023-09-05T22:38:28.337Z,2.40
2023-09-05T22:40:55.837Z,2.40
2023-09-05T22:43:23.698Z,1.70
2023-09-05T22:45:52.380Z,1.88
2023-09-05T22:48:20.601Z,1.85
2023-09-05T22:50:47.939Z,4.68
2023-09-05T22:53:15.197Z,2.40
2023-09-05T22:55:43.104Z,1.95
2023-09-05T22:58:10.381Z,3.45
2023-09-05T23:00:38.114Z,1.50
2023-09-05T23:03:08.012Z,2.03
2023-09-05T23:05:35.787Z,5.22
2023-09-05T23:08:03.830Z,1.45
2023-09-05T23:10:31.123Z,1.60
2023-09-05T23:12:58.425Z,1.63
2023-09-05T23:15:25.881Z,1.60
2023-09-05T23:17:53.345Z,3.95
2023-09-05T23:20:22.111Z,4.00
2023-09-05T23:22:49.464Z,2.78
2023-09-05T23:25:17.443Z,2.20
2023-09-05T23:27:44.777Z,2.15
2023-09-05T23:30:13.974Z,2.63
2023-09-05T23:32:42.860Z,2.38
2023-09-05T23:35:10.587Z,1.60
2023-09-05T23:37:39.225Z,1.77
2023-09-05T23:40:09.900Z,3.15
2023-09-05T23:42:38.012Z,2.90
2023-09-05T23:45:06.857Z,1.58
2023-09-05T23:47:35.012Z,3.42
2023-09-05T23:50:02.285Z,1.73
2023-09-05T23:52:33.080Z,2.30
2023-09-05T23:55:03.611Z,2.78
2023-09-05T23:57:30.973Z,1.50
2023-09-05T23:59:58.284Z,1.95
